Time;durP1;ratioP1;P1;durP2;ratioP2;P2;SDS_P1;SDS_P2;PMS_P1;PMS_P2;Temp;Humidity;BMP_temperature;BMP_pressure;BME280_temperature;BME280_humidity;BME280_pressure;Samples;Min_cycle;Max_cycle;Signal;HPM_P1;HPM_P2
2023/06/03 00:00:10;;;;;;;7.53;3.60;;;11.70;99.90;;;;;;5111568;28;20230;-77
2023/06/03 00:02:35;;;;;;;6.23;3.20;;;11.70;99.90;;;;;;5111373;28;20315;-77
2023/06/03 00:05:01;;;;;;;9.33;3.57;;;11.70;99.90;;;;;;5113100;28;20244;-77
2023/06/03 00:07:27;;;;;;;6.53;3.57;;;11.70;99.90;;;;;;5111339;28;20322;-77
2023/06/03 00:09:53;;;;;;;11.70;4.20;;;11.70;99.90;;;;;;5112817;28;20199;-77
2023/06/03 00:12:20;;;;;;;8.77;3.87;;;11.60;99.90;;;;;;5112896;28;20201;-77
2023/06/03 00:14:46;;;;;;;8.40;3.87;;;11.70;99.90;;;;;;5111244;28;20174;-77
2023/06/03 00:17:11;;;;;;;8.50;3.30;;;11.60;99.90;;;;;;5112815;28;20172;-77
2023/06/03 00:19:40;;;;;;;10.03;3.83;;;11.60;1.00;;;;;;5113111;28;20178;-77
2023/06/03 00:22:06;;;;;;;8.03;3.73;;;11.60;1.00;;;;;;5111270;28;20288;-77
2023/06/03 00:24:32;;;;;;;8.57;3.57;;;11.60;1.00;;;;;;5112721;28;20170;-77
2023/06/03 00:26:57;;;;;;;9.63;3.60;;;11.50;1.00;;;;;;5114231;28;20197;-77
2023/06/03 00:29:25;;;;;;;6.20;3.63;;;11.50;1.00;;;;;;5116344;28;20205;-77
2023/06/03 00:31:50;;;;;;;5.73;3.10;;;11.50;1.00;;;;;;5115587;28;20213;-77
2023/06/03 00:34:16;;;;;;;8.33;3.40;;;11.40;1.00;;;;;;5117545;28;20174;-77
2023/06/03 00:36:42;;;;;;;6.90;3.77;;;11.40;1.00;;;;;;5116855;28;20413;-76
2023/06/03 00:39:08;;;;;;;7.63;3.70;;;11.40;1.00;;;;;;5116917;28;20178;-77
2023/06/03 00:41:34;;;;;;;7.23;3.50;;;11.40;1.00;;;;;;5115724;28;20177;-77
2023/06/03 00:43:59;;;;;;;10.50;3.70;;;11.40;1.00;;;;;;5115207;28;20660;-77
2023/06/03 00:46:25;;;;;;;10.33;3.90;;;11.40;1.00;;;;;;5115242;28;20194;-77
2023/06/03 00:48:51;;;;;;;10.73;4.20;;;11.40;1.00;;;;;;5115866;28;20699;-77
2023/06/03 00:51:18;;;;;;;8.70;4.67;;;11.30;1.00;;;;;;5115269;28;20178;-77
2023/06/03 00:53:44;;;;;;;6.23;3.70;;;11.30;1.00;;;;;;5116757;28;20170;-76
2023/06/03 00:56:10;;;;;;;7.37;3.70;;;11.30;1.00;;;;;;5117067;28;20204;-76
2023/06/03 00:58:36;;;;;;;8.73;3.47;;;11.30;1.00;;;;;;5115319;28;20178;-77
2023/06/03 01:01:02;;;;;;;6.43;4.00;;;11.30;1.00;;;;;;5115556;28;20226;-77
2023/06/03 01:03:27;;;;;;;5.73;3.60;;;11.30;1.00;;;;;;5116595;28;20182;-77
2023/06/03 01:06:26;;;;;;;8.83;3.83;;;11.20;1.00;;;;;;5114914;28;20198;-77
2023/06/03 01:09:20;;;;;;;5.27;3.33;;;11.20;1.00;;;;;;5105034;28;20213;-77
2023/06/03 01:12:11;;;;;;;8.33;3.63;;;11.20;1.00;;;;;;5116501;28;20149;-77
2023/06/03 01:14:42;;;;;;;7.57;3.30;;;11.20;1.00;;;;;;5114373;28;20273;-77
2023/06/03 01:17:09;;;;;;;10.67;3.80;;;11.20;1.00;;;;;;5115467;28;20190;-77
2023/06/03 01:19:48;;;;;;;6.87;3.47;;;11.20;37.40;;;;;;5115802;28;20522;-77
2023/06/03 01:22:21;;;;;;;7.40;4.03;;;11.20;38.20;;;;;;5115998;28;20195;-77
2023/06/03 01:24:50;;;;;;;7.03;3.47;;;11.20;43.80;;;;;;5115692;28;20238;-76
2023/06/03 01:27:16;;;;;;;5.20;3.30;;;11.20;45.20;;;;;;5115566;28;20602;-77
2023/06/03 01:29:43;;;;;;;12.67;3.87;;;11.20;67.00;;;;;;5115181;28;20201;-77
2023/06/03 01:32:14;;;;;;;6.00;3.60;;;11.20;78.00;;;;;;5113583;28;20169;-77
2023/06/03 01:34:41;;;;;;;9.80;3.97;;;11.10;91.00;;;;;;5115007;28;20227;-77
2023/06/03 01:37:08;;;;;;;6.43;3.90;;;11.20;70.70;;;;;;5114124;28;20654;-77
2023/06/03 01:39:37;;;;;;;9.60;4.63;;;11.10;88.10;;;;;;5115768;28;20170;-77
2023/06/03 01:42:03;;;;;;;7.07;3.87;;;11.20;67.50;;;;;;5116016;28;20252;-76
2023/06/03 01:44:29;;;;;;;5.63;3.43;;;11.10;80.10;;;;;;5115954;28;20315;-77
2023/06/03 01:46:54;;;;;;;8.60;3.57;;;11.10;73.20;;;;;;5114904;28;20364;-77
2023/06/03 01:49:20;;;;;;;8.47;3.60;;;11.10;94.60;;;;;;5115900;28;20201;-76
2023/06/03 01:51:46;;;;;;;9.23;4.53;;;11.10;99.90;;;;;;5114083;28;20258;-76
2023/06/03 01:54:11;;;;;;;4.90;3.30;;;11.10;99.90;;;;;;5114235;28;20664;-77
2023/06/03 01:56:37;;;;;;;6.73;3.70;;;11.10;99.90;;;;;;5114597;28;20282;-77
2023/06/03 01:59:02;;;;;;;8.50;3.70;;;11.10;99.90;;;;;;5115792;28;20205;-77
2023/06/03 02:01:28;;;;;;;7.20;3.80;;;11.10;99.90;;;;;;5115936;28;20201;-77
2023/06/03 02:03:53;;;;;;;9.27;4.13;;;11.00;99.90;;;;;;5114243;28;20177;-76
2023/06/03 02:06:19;;;;;;;9.63;4.00;;;11.00;99.90;;;;;;5114268;28;20240;-77
2023/06/03 02:08:45;;;;;;;8.50;3.17;;;11.00;99.90;;;;;;5114087;28;20303;-76
2023/06/03 02:11:10;;;;;;;11.97;3.90;;;11.00;99.90;;;;;;5114821;28;20166;-77
2023/06/03 02:13:36;;;;;;;9.73;3.60;;;11.00;99.90;;;;;;5113260;28;20663;-77
2023/06/03 02:16:03;;;;;;;8.70;4.20;;;11.00;99.90;;;;;;5114805;28;20189;-77
2023/06/03 02:18:29;;;;;;;7.83;3.90;;;11.00;99.90;;;;;;5115058;28;20169;-77
2023/06/03 02:20:55;;;;;;;6.57;3.57;;;10.90;99.90;;;;;;5115048;28;20173;-76
2023/06/03 02:23:21;;;;;;;6.13;3.87;;;10.90;99.90;;;;;;5114856;28;20189;-77
2023/06/03 02:25:48;;;;;;;5.87;3.50;;;10.90;99.90;;;;;;5114777;28;20238;-76
2023/06/03 02:28:16;;;;;;;5.97;3.50;;;10.90;99.90;;;;;;5114796;28;20574;-77
2023/06/03 02:30:42;;;;;;;14.40;4.27;;;10.90;99.90;;;;;;5114789;28;20162;-77
2023/06/03 02:33:07;;;;;;;5.57;3.70;;;10.80;99.90;;;;;;5115211;28;20257;-77
2023/06/03 02:35:34;;;;;;;9.53;3.50;;;10.90;99.90;;;;;;5114634;28;20200;-76
2023/06/03 02:37:59;;;;;;;9.03;4.03;;;10.90;99.90;;;;;;5115150;28;20276;-77
2023/06/03 02:40:25;;;;;;;8.30;4.10;;;10.90;99.90;;;;;;5114665;28;20235;-77
2023/06/03 02:42:50;;;;;;;7.67;3.77;;;10.80;99.90;;;;;;5113450;28;20180;-77
2023/06/03 02:45:16;;;;;;;9.00;3.63;;;10.90;99.90;;;;;;5114801;28;20201;-77
2023/06/03 02:47:41;;;;;;;5.90;3.97;;;10.90;99.90;;;;;;5114563;28;20174;-77
2023/06/03 02:50:07;;;;;;;9.23;4.07;;;10.80;99.90;;;;;;5112027;28;20646;-77
2023/06/03 02:52:35;;;;;;;6.20;3.70;;;10.90;99.90;;;;;;5112847;28;20184;-77
2023/06/03 02:55:01;;;;;;;8.43;3.77;;;10.80;99.90;;;;;;5113214;28;20334;-77
2023/06/03 02:57:27;;;;;;;7.93;3.97;;;10.90;99.90;;;;;;5114226;28;20223;-76
2023/06/03 02:59:52;;;;;;;7.70;4.53;;;10.80;99.90;;;;;;5112921;28;20176;-77
2023/06/03 03:02:21;;;;;;;9.33;4.20;;;10.80;99.90;;;;;;5114171;28;20223;-77
2023/06/03 03:04:47;;;;;;;10.67;4.33;;;10.80;99.90;;;;;;5113682;28;20174;-77
2023/06/03 03:07:12;;;;;;;7.73;3.83;;;10.80;99.90;;;;;;5114033;28;20176;-77
2023/06/03 03:09:38;;;;;;;9.33;4.37;;;10.80;99.90;;;;;;5113890;28;20193;-77
2023/06/03 03:12:04;;;;;;;8.03;4.40;;;10.80;99.90;;;;;;5112282;28;20446;-77
2023/06/03 03:14:30;;;;;;;9.97;4.03;;;10.80;99.90;;;;;;5112072;28;20204;-77
2023/06/03 03:16:56;;;;;;;9.57;4.57;;;10.90;99.90;;;;;;5111773;28;20196;-76
2023/06/03 03:19:22;;;;;;;9.63;4.20;;;10.70;99.90;;;;;;5112778;28;20177;-76
2023/06/03 03:21:47;;;;;;;6.97;4.17;;;10.70;99.90;;;;;;5114483;28;20188;-76
2023/06/03 03:24:13;;;;;;;8.27;4.53;;;10.70;99.90;;;;;;5114657;28;20174;-76
2023/06/03 03:26:39;;;;;;;7.90;4.30;;;10.70;99.90;;;;;;5114511;28;20582;-76
2023/06/03 03:29:05;;;;;;;10.07;4.20;;;10.70;99.90;;;;;;5114203;28;20208;-77
2023/06/03 03:31:31;;;;;;;9.60;4.33;;;10.70;99.90;;;;;;5112964;28;20242;-76
2023/06/03 03:33:57;;;;;;;7.80;4.17;;;10.70;99.90;;;;;;5113450;28;20627;-76
2023/06/03 03:36:22;;;;;;;7.60;3.83;;;10.60;99.90;;;;;;5113155;28;20572;-76
2023/06/03 03:38:59;;;;;;;9.77;4.33;;;10.60;99.90;;;;;;5113143;28;20169;-76
2023/06/03 03:41:25;;;;;;;6.93;3.80;;;10.70;99.90;;;;;;5114478;28;20191;-77
2023/06/03 03:43:51;;;;;;;11.83;4.00;;;10.60;99.90;;;;;;5114150;28;20170;-76
2023/06/03 03:46:17;;;;;;;10.30;3.93;;;10.70;99.90;;;;;;5112832;28;20197;-76
2023/06/03 03:48:44;;;;;;;8.97;4.07;;;10.60;99.90;;;;;;5113278;28;20274;-77
2023/06/03 03:51:13;;;;;;;8.67;3.93;;;10.60;99.90;;;;;;5112623;28;20166;-77
2023/06/03 03:53:46;;;;;;;10.90;4.47;;;10.60;99.90;;;;;;5112698;28;20169;-76
2023/06/03 03:56:18;;;;;;;10.10;4.63;;;10.60;99.90;;;;;;5112754;28;20625;-76
2023/06/03 03:58:44;;;;;;;8.17;4.50;;;10.60;99.90;;;;;;5113980;28;20619;-76
2023/06/03 04:01:23;;;;;;;11.00;4.97;;;10.60;99.90;;;;;;5115689;28;20193;-77
2023/06/03 04:03:51;;;;;;;7.00;3.80;;;10.70;99.90;;;;;;5116789;28;20255;-76
2023/06/03 04:06:38;;;;;;;11.17;4.90;;;10.70;99.90;;;;;;5117757;28;20239;-76
2023/06/03 04:09:08;;;;;;;7.27;4.30;;;10.60;99.90;;;;;;5117149;28;20188;-77
2023/06/03 04:11:41;;;;;;;5.80;3.50;;;10.60;99.90;;;;;;5117686;28;20258;-76
2023/06/03 04:14:15;;;;;;;7.93;4.13;;;10.60;99.90;;;;;;5117947;28;20158;-76
2023/06/03 04:16:48;;;;;;;5.00;4.00;;;10.70;99.90;;;;;;5117738;28;20544;-76
2023/06/03 04:19:36;;;;;;;7.27;3.97;;;10.70;99.90;;;;;;5117632;28;20648;-76
2023/06/03 04:22:04;;;;;;;8.37;3.50;;;10.70;99.90;;;;;;5116500;28;20182;-76
2023/06/03 04:24:30;;;;;;;5.80;4.07;;;10.70;99.90;;;;;;5116463;28;20650;-76
2023/06/03 04:26:56;;;;;;;7.50;4.20;;;10.80;99.90;;;;;;5116443;28;20205;-76
2023/06/03 04:29:23;;;;;;;9.73;3.87;;;10.80;99.90;;;;;;5117672;28;20201;-76
2023/06/03 04:31:48;;;;;;;7.73;4.20;;;10.80;99.90;;;;;;5116899;28;20174;-76
2023/06/03 04:34:14;;;;;;;7.17;3.70;;;10.80;99.90;;;;;;5116910;28;20182;-76
2023/06/03 04:36:39;;;;;;;6.40;3.90;;;10.90;99.90;;;;;;5117494;28;20235;-76
2023/06/03 04:39:05;;;;;;;8.83;3.90;;;10.90;99.90;;;;;;5117496;28;20181;-76
2023/06/03 04:41:32;;;;;;;7.77;4.10;;;10.90;99.90;;;;;;5117165;28;20173;-76
2023/06/03 04:43:59;;;;;;;9.03;4.57;;;10.90;99.10;;;;;;5117458;28;20166;-76
2023/06/03 04:46:29;;;;;;;9.07;3.70;;;10.90;38.40;;;;;;5115666;28;20233;-76
2023/06/03 04:48:55;;;;;;;6.53;3.33;;;11.00;1.00;;;;;;5116962;28;20280;-76
2023/06/03 04:51:22;;;;;;;6.93;3.23;;;11.00;1.00;;;;;;5115822;28;20339;-76
2023/06/03 04:53:48;;;;;;;7.57;3.40;;;11.00;1.00;;;;;;5116967;28;20158;-76
2023/06/03 04:56:14;;;;;;;7.60;3.73;;;11.10;1.00;;;;;;5116643;28;20190;-76
2023/06/03 04:58:42;;;;;;;6.97;3.33;;;11.10;1.00;;;;;;5115544;28;20173;-76
2023/06/03 05:01:08;;;;;;;8.37;3.70;;;11.10;1.00;;;;;;5115347;28;20197;-77
2023/06/03 05:03:38;;;;;;;6.93;3.20;;;11.10;1.00;;;;;;5116257;28;20166;-77
2023/06/03 05:06:10;;;;;;;6.43;3.27;;;11.20;1.00;;;;;;5116531;27;20192;-77
2023/06/03 05:08:37;;;;;;;6.27;2.97;;;11.20;99.90;;;;;;5116295;28;20216;-76
2023/06/03 05:11:03;;;;;;;7.60;3.30;;;11.20;99.90;;;;;;5117168;28;20165;-76
2023/06/03 05:13:29;;;;;;;5.70;3.20;;;11.30;93.50;;;;;;5116513;28;20166;-76
2023/06/03 05:15:54;;;;;;;5.47;3.07;;;11.30;98.40;;;;;;5116374;28;20193;-76
2023/06/03 05:18:20;;;;;;;5.80;2.77;;;11.40;1.00;;;;;;5115264;28;20189;-76
2023/06/03 05:20:45;;;;;;;5.73;2.53;;;11.40;1.00;;;;;;5115233;28;20265;-76
2023/06/03 05:23:11;;;;;;;9.00;3.00;;;11.50;99.90;;;;;;5115075;28;20204;-77
2023/06/03 05:25:36;;;;;;;6.13;2.70;;;11.50;99.80;;;;;;5115822;28;20696;-76
2023/06/03 05:28:02;;;;;;;7.00;2.80;;;11.60;1.00;;;;;;5115347;28;20289;-77
2023/06/03 05:30:27;;;;;;;10.80;2.60;;;11.70;99.90;;;;;;5113762;28;20575;-76
2023/06/03 05:32:53;;;;;;;5.77;2.80;;;11.60;99.90;;;;;;5114605;28;20166;-76
2023/06/03 05:35:19;;;;;;;3.73;2.73;;;11.70;1.00;;;;;;5115716;28;20189;-76
2023/06/03 05:37:44;;;;;;;4.83;2.40;;;11.70;1.00;;;;;;5114553;28;20542;-76
2023/06/03 05:40:10;;;;;;;7.73;2.63;;;11.80;99.90;;;;;;5115213;28;20172;-76
2023/06/03 05:42:36;;;;;;;4.10;2.50;;;11.80;1.00;;;;;;5115516;28;20185;-77
2023/06/03 05:45:03;;;;;;;4.60;2.63;;;11.90;1.00;;;;;;5115172;28;20193;-77
2023/06/03 05:47:28;;;;;;;6.53;2.73;;;11.90;99.90;;;;;;5115404;28;20174;-77
2023/06/03 05:49:54;;;;;;;3.60;2.03;;;12.00;99.90;;;;;;5117827;28;20216;-77
2023/06/03 05:52:19;;;;;;;6.23;2.60;;;12.00;1.00;;;;;;5117866;28;20165;-77
2023/06/03 05:54:45;;;;;;;5.87;1.93;;;12.10;1.00;;;;;;5117405;28;20169;-78
2023/06/03 05:57:11;;;;;;;4.47;1.80;;;12.10;99.90;;;;;;5117216;28;20173;-76
2023/06/03 05:59:37;;;;;;;3.87;2.27;;;12.20;99.90;;;;;;5117822;28;20174;-77
2023/06/03 06:02:03;;;;;;;4.37;1.83;;;12.20;99.90;;;;;;5118130;28;20177;-78
2023/06/03 06:04:28;;;;;;;5.67;2.63;;;12.30;20.70;;;;;;5118099;28;20638;-77
2023/06/03 06:06:54;;;;;;;5.23;2.40;;;12.30;99.90;;;;;;5115649;28;20617;-77
2023/06/03 06:09:20;;;;;;;5.53;1.93;;;12.40;99.90;;;;;;5116488;28;20288;-77
2023/06/03 06:11:45;;;;;;;4.03;1.80;;;12.40;99.90;;;;;;5117899;28;20166;-77
2023/06/03 06:14:12;;;;;;;5.33;2.10;;;12.50;99.90;;;;;;5116575;28;20165;-77
2023/06/03 06:16:37;;;;;;;4.07;1.80;;;12.50;1.00;;;;;;5116337;28;20196;-77
2023/06/03 06:19:03;;;;;;;6.03;1.60;;;12.60;1.00;;;;;;5115954;28;20173;-77
2023/06/03 06:21:28;;;;;;;2.50;1.43;;;12.70;1.00;;;;;;5117439;28;20174;-78
2023/06/03 06:23:54;;;;;;;2.57;1.60;;;12.70;99.90;;;;;;5117658;28;20205;-78
2023/06/03 06:26:20;;;;;;;5.13;1.67;;;12.80;99.90;;;;;;5116099;28;20296;-78
2023/06/03 06:28:46;;;;;;;3.90;1.43;;;12.90;42.80;;;;;;5117598;28;20189;-78
2023/06/03 06:31:13;;;;;;;3.97;1.60;;;12.90;1.00;;;;;;5117672;28;20170;-78
2023/06/03 06:33:41;;;;;;;2.77;1.53;;;12.90;16.90;;;;;;5116569;28;20237;-77
2023/06/03 06:36:32;;;;;;;2.27;1.33;;;13.00;99.90;;;;;;5114388;28;20193;-77
2023/06/03 06:38:58;;;;;;;4.57;1.63;;;13.10;99.90;;;;;;5111180;28;20570;-77
2023/06/03 06:41:27;;;;;;;2.27;1.33;;;13.20;99.90;;;;;;5115624;28;20169;-77
2023/06/03 06:43:54;;;;;;;2.50;1.30;;;13.20;1.00;;;;;;5116639;28;20177;-78
2023/06/03 06:46:23;;;;;;;1.67;1.20;;;13.30;99.90;;;;;;5118037;28;20217;-78
2023/06/03 06:48:49;;;;;;;1.70;0.90;;;13.40;99.90;;;;;;5119262;28;20201;-76
2023/06/03 06:51:14;;;;;;;3.37;1.57;;;13.40;95.10;;;;;;5115901;28;20208;-76
2023/06/03 06:53:43;;;;;;;3.63;1.50;;;13.50;1.00;;;;;;5115744;28;20311;-77
2023/06/03 06:56:08;;;;;;;3.07;1.50;;;13.60;1.00;;;;;;5117215;28;20189;-78
2023/06/03 06:58:38;;;;;;;3.00;1.40;;;13.70;99.90;;;;;;5117371;28;20169;-79
2023/06/03 07:01:08;;;;;;;7.77;1.60;;;13.80;1.00;;;;;;5114561;28;20154;-80
2023/06/03 07:03:35;;;;;;;4.20;1.37;;;13.80;21.00;;;;;;5115007;28;20211;-82
2023/06/03 07:06:00;;;;;;;3.27;1.27;;;13.90;90.80;;;;;;5113117;28;20221;-82
2023/06/03 07:08:26;;;;;;;2.50;1.30;;;14.00;99.90;;;;;;5113141;28;20235;-78
2023/06/03 07:10:58;;;;;;;4.90;1.47;;;14.10;1.00;;;;;;5117311;28;20170;-79
2023/06/03 07:13:24;;;;;;;3.50;1.37;;;14.10;98.10;;;;;;5118256;28;20634;-79
2023/06/03 07:15:50;;;;;;;3.20;1.47;;;14.10;99.90;;;;;;5115694;28;20197;-78
2023/06/03 07:18:16;;;;;;;4.53;1.93;;;14.20;99.90;;;;;;5116018;28;20227;-78
2023/06/03 07:20:44;;;;;;;2.40;1.30;;;14.30;66.00;;;;;;5117709;28;20222;-79
2023/06/03 07:23:11;;;;;;;2.60;1.40;;;14.40;1.00;;;;;;5117283;28;20217;-79
2023/06/03 07:25:47;;;;;;;3.07;1.40;;;14.50;21.40;;;;;;5119293;28;20756;-79
2023/06/03 07:28:14;;;;;;;1.60;0.90;;;14.50;1.00;;;;;;5118256;28;20200;-79
2023/06/03 07:30:42;;;;;;;3.97;1.30;;;14.60;1.00;;;;;;5119402;28;20169;-79
2023/06/03 07:33:30;;;;;;;3.70;1.13;;;14.70;1.00;;;;;;5118956;28;20248;-79
2023/06/03 07:36:00;;;;;;;3.70;1.00;;;14.80;1.00;;;;;;5120373;28;20196;-78
2023/06/03 07:38:38;;;;;;;2.77;1.20;;;14.90;99.90;;;;;;5127137;27;20168;-79
2023/06/03 07:41:05;;;;;;;6.13;1.20;;;14.90;99.90;;;;;;5127286;28;20660;-79
2023/06/03 07:43:30;;;;;;;2.97;1.20;;;15.00;99.90;;;;;;5126736;27;20165;-79
2023/06/03 07:45:56;;;;;;;1.77;1.07;;;15.00;1.00;;;;;;5127424;28;20216;-79
2023/06/03 07:48:23;;;;;;;2.93;1.10;;;15.10;1.00;;;;;;5128685;28;20570;-79
2023/06/03 07:50:49;;;;;;;2.70;1.10;;;15.10;99.90;;;;;;5127961;28;20586;-78
2023/06/03 07:53:24;;;;;;;3.90;1.20;;;15.20;1.00;;;;;;5128336;28;20234;-79
2023/06/03 07:55:50;;;;;;;2.93;1.30;;;15.30;99.90;;;;;;5129531;27;20252;-79
2023/06/03 07:58:17;;;;;;;1.90;1.10;;;15.50;99.90;;;;;;5128508;28;20177;-79
2023/06/03 08:00:50;;;;;;;5.83;1.20;;;15.50;99.90;;;;;;5126274;28;20177;-79
2023/06/03 08:03:18;;;;;;;5.83;1.10;;;15.60;99.90;;;;;;5128061;27;20159;-79
2023/06/03 08:05:47;;;;;;;3.40;1.30;;;15.60;99.90;;;;;;5127471;28;20201;-79
2023/06/03 08:08:14;;;;;;;1.77;1.00;;;15.70;40.80;;;;;;5127938;28;20197;-79
2023/06/03 08:10:42;;;;;;;5.10;1.53;;;15.80;99.90;;;;;;5127329;28;20174;-79
2023/06/03 08:13:07;;;;;;;2.23;0.73;;;15.90;99.90;;;;;;5129600;28;20180;-79
2023/06/03 08:15:35;;;;;;;2.67;1.10;;;15.90;99.90;;;;;;5131591;28;20288;-80
2023/06/03 08:18:08;;;;;;;4.43;1.00;;;16.00;55.00;;;;;;5130615;28;20212;-80
2023/06/03 08:20:36;;;;;;;5.90;1.10;;;16.10;19.10;;;;;;5129071;27;20717;-79
2023/06/03 08:23:03;;;;;;;4.27;1.27;;;16.20;11.50;;;;;;5130254;27;20189;-80
2023/06/03 08:25:30;;;;;;;3.20;1.10;;;16.30;91.40;;;;;;5132453;27;20181;-79
2023/06/03 08:27:55;;;;;;;3.23;1.23;;;16.30;99.90;;;;;;5131332;27;20173;-79
2023/06/03 08:30:22;;;;;;;8.43;1.47;;;16.40;87.10;;;;;;5129724;28;20265;-79
2023/06/03 08:32:50;;;;;;;1.80;1.00;;;16.40;99.90;;;;;;5128655;28;20181;-80
2023/06/03 08:35:18;;;;;;;5.27;1.20;;;16.50;1.00;;;;;;5130727;27;20190;-79
2023/06/03 08:37:44;;;;;;;4.20;1.03;;;16.60;1.00;;;;;;5131276;28;20260;-79
2023/06/03 08:40:12;;;;;;;2.30;1.10;;;16.70;1.00;;;;;;5130913;28;20178;-80
2023/06/03 08:42:46;;;;;;;2.67;1.00;;;16.70;1.00;;;;;;5132063;27;20170;-79
2023/06/03 08:45:17;;;;;;;2.80;1.03;;;16.80;1.00;;;;;;5129852;27;20189;-79
2023/06/03 08:48:04;;;;;;;3.17;0.87;;;16.90;1.00;;;;;;5125880;27;20200;-80
2023/06/03 08:50:32;;;;;;;3.13;0.80;;;17.10;1.00;;;;;;5126059;28;20219;-80
2023/06/03 08:53:00;;;;;;;5.07;0.87;;;17.20;1.00;;;;;;5124414;28;20173;-80
2023/06/03 08:55:26;;;;;;;1.97;1.10;;;17.30;1.00;;;;;;5127089;28;20186;-79
2023/06/03 08:58:25;;;;;;;4.10;0.97;;;17.40;1.00;;;;;;5124641;28;20272;-79
2023/06/03 09:01:01;;;;;;;4.73;1.07;;;17.50;1.00;;;;;;5129842;28;20219;-80
2023/06/03 09:03:27;;;;;;;3.07;1.10;;;17.60;1.00;;;;;;5132500;28;20228;-80
2023/06/03 09:05:54;;;;;;;2.13;1.00;;;17.70;1.00;;;;;;5127089;28;20204;-80
2023/06/03 09:08:20;;;;;;;6.57;1.20;;;17.70;1.00;;;;;;5126607;28;20223;-80
2023/06/03 09:10:47;;;;;;;2.90;1.03;;;17.70;1.00;;;;;;5132227;28;20161;-80
2023/06/03 09:13:15;;;;;;;2.53;1.30;;;17.80;1.00;;;;;;5131173;28;20173;-80
2023/06/03 09:15:42;;;;;;;1.83;1.30;;;17.90;1.00;;;;;;5129167;28;20216;-79
2023/06/03 09:18:08;;;;;;;3.33;1.10;;;17.90;1.00;;;;;;5131170;28;20181;-80
2023/06/03 09:20:36;;;;;;;2.70;0.93;;;18.00;1.00;;;;;;5126869;28;20178;-80
2023/06/03 09:23:02;;;;;;;1.40;1.00;;;18.10;1.00;;;;;;5124386;28;20220;-80
2023/06/03 09:25:28;;;;;;;7.33;1.33;;;18.10;1.00;;;;;;5129643;28;20223;-80
2023/06/03 09:27:54;;;;;;;3.83;1.10;;;18.30;1.00;;;;;;5131821;28;20177;-80
2023/06/03 09:30:19;;;;;;;3.00;1.00;;;18.30;1.00;;;;;;5125276;28;20205;-80
2023/06/03 09:32:45;;;;;;;2.03;1.00;;;18.40;1.00;;;;;;5122722;28;20618;-79
2023/06/03 09:35:12;;;;;;;1.43;0.90;;;18.50;1.00;;;;;;5122315;28;20713;-80
2023/06/03 09:37:37;;;;;;;1.77;0.97;;;18.50;1.00;;;;;;5124761;28;20169;-80
2023/06/03 09:40:05;;;;;;;3.40;1.43;;;18.50;1.00;;;;;;5123699;28;20263;-79
2023/06/03 09:42:41;;;;;;;3.43;1.10;;;18.60;1.00;;;;;;5124149;28;20178;-80
2023/06/03 09:45:07;;;;;;;3.30;1.00;;;18.70;1.00;;;;;;5127212;28;20205;-79
2023/06/03 09:47:38;;;;;;;5.33;1.87;;;18.80;1.00;;;;;;5129220;28;20295;-79
2023/06/03 09:50:06;;;;;;;3.73;1.20;;;18.80;1.00;;;;;;5121734;28;20243;-79
2023/06/03 09:52:36;;;;;;;4.40;1.27;;;18.90;1.00;;;;;;5120726;28;20169;-79
2023/06/03 09:55:05;;;;;;;1.70;1.03;;;19.00;1.00;;;;;;5122496;28;20205;-79
2023/06/03 09:57:31;;;;;;;2.10;1.00;;;19.00;1.00;;;;;;5120792;28;20173;-80
2023/06/03 10:00:11;;;;;;;2.70;1.10;;;19.00;1.00;;;;;;5121817;28;20178;-79
2023/06/03 10:02:43;;;;;;;1.47;0.90;;;19.10;1.00;;;;;;5121487;28;20173;-79
2023/06/03 10:05:28;;;;;;;4.57;1.20;;;19.20;1.00;;;;;;5122424;28;20548;-79
2023/06/03 10:07:55;;;;;;;2.37;1.00;;;19.20;1.00;;;;;;5121568;28;20165;-80
2023/06/03 10:10:21;;;;;;;2.43;1.27;;;19.20;1.00;;;;;;5122717;28;20512;-79
2023/06/03 10:12:48;;;;;;;2.47;0.90;;;19.30;1.00;;;;;;5123830;28;20176;-79
2023/06/03 10:15:35;;;;;;;2.07;0.97;;;19.40;1.00;;;;;;5121169;28;20197;-79
2023/06/03 10:18:01;;;;;;;5.53;1.23;;;19.40;1.00;;;;;;5124136;28;20208;-80
2023/06/03 10:20:35;;;;;;;2.30;0.90;;;19.50;1.00;;;;;;5125299;28;20161;-80
2023/06/03 10:23:06;;;;;;;4.77;1.07;;;19.60;1.00;;;;;;5124393;28;20219;-80
2023/06/03 10:25:34;;;;;;;4.97;1.50;;;19.60;1.00;;;;;;5125464;27;20193;-80
2023/06/03 10:28:00;;;;;;;6.00;1.03;;;19.60;1.00;;;;;;5125223;28;20190;-80
2023/06/03 10:30:28;;;;;;;2.57;1.10;;;19.70;1.00;;;;;;5119268;28;20174;-79
2023/06/03 10:32:57;;;;;;;4.00;1.13;;;19.80;1.00;;;;;;5119340;28;20185;-79
2023/06/03 10:35:23;;;;;;;4.00;1.33;;;19.80;1.00;;;;;;5120893;28;20186;-80
2023/06/03 10:37:49;;;;;;;7.73;1.43;;;19.90;1.00;;;;;;5118970;28;20169;-80
2023/06/03 10:40:16;;;;;;;2.83;1.13;;;19.90;1.00;;;;;;5122567;28;20200;-79
2023/06/03 10:42:44;;;;;;;1.50;0.97;;;20.00;1.00;;;;;;5125233;28;20173;-80
2023/06/03 10:45:11;;;;;;;3.50;1.13;;;20.00;1.00;;;;;;5121255;28;20189;-80
2023/06/03 10:47:40;;;;;;;2.73;1.23;;;19.90;1.00;;;;;;5122626;28;20194;-80
2023/06/03 10:50:42;;;;;;;1.77;1.10;;;20.00;1.00;;;;;;5124917;28;20200;-81
2023/06/03 10:53:23;;;;;;;2.53;1.23;;;20.00;1.00;;;;;;5125027;28;20158;-80
2023/06/03 10:56:06;;;;;;;4.57;1.10;;;20.10;1.00;;;;;;5120242;28;20181;-80
2023/06/03 10:58:32;;;;;;;4.50;1.13;;;20.20;1.00;;;;;;5120135;28;20154;-80
2023/06/03 11:01:01;;;;;;;2.57;1.20;;;20.10;1.00;;;;;;5119537;28;20693;-80
2023/06/03 11:03:52;;;;;;;1.43;0.83;;;20.20;1.00;;;;;;5117910;28;20348;-81
2023/06/03 11:06:25;;;;;;;8.03;1.20;;;20.30;1.00;;;;;;5124434;28;20225;-81
2023/06/03 11:09:16;;;;;;;5.63;1.13;;;20.30;1.00;;;;;;5121914;28;20182;-80
2023/06/03 11:11:42;;;;;;;2.37;1.07;;;20.40;1.00;;;;;;5119857;28;20205;-80
2023/06/03 11:14:08;;;;;;;5.30;1.00;;;20.50;1.00;;;;;;5122995;28;20223;-81
2023/06/03 11:16:52;;;;;;;2.10;0.73;;;20.50;1.00;;;;;;5120472;28;20206;-81
2023/06/03 11:19:33;;;;;;;2.57;1.23;;;20.70;1.00;;;;;;5122629;28;20180;-80
2023/06/03 11:22:09;;;;;;;2.77;1.40;;;20.60;1.00;;;;;;5119060;28;20402;-79
2023/06/03 11:24:37;;;;;;;2.93;1.20;;;20.70;1.00;;;;;;5118268;28;20251;-79
2023/06/03 11:27:09;;;;;;;2.40;1.37;;;20.90;1.00;;;;;;5116974;28;20185;-79
2023/06/03 11:29:46;;;;;;;4.73;1.03;;;20.80;1.00;;;;;;5116420;28;20258;-81
2023/06/03 11:32:25;;;;;;;2.73;1.37;;;20.90;1.00;;;;;;5114560;28;20694;-80
2023/06/03 11:35:11;;;;;;;4.80;1.43;;;21.00;1.00;;;;;;5115952;28;20215;-80
2023/06/03 11:37:40;;;;;;;4.17;1.20;;;20.90;99.90;;;;;;5116931;28;20191;-80
2023/06/03 11:40:07;;;;;;;6.30;1.20;;;21.00;1.00;;;;;;5115353;28;20187;-79
2023/06/03 11:42:46;;;;;;;1.60;1.13;;;21.00;1.00;;;;;;5114645;28;20169;-79
2023/06/03 11:45:21;;;;;;;2.80;1.33;;;21.00;1.00;;;;;;5116548;28;20680;-79
2023/06/03 11:47:52;;;;;;;4.93;1.63;;;21.10;1.00;;;;;;5117193;28;20169;-79
2023/06/03 11:50:20;;;;;;;3.27;1.30;;;21.20;1.00;;;;;;5120302;28;20177;-80
2023/06/03 11:52:45;;;;;;;1.63;1.20;;;21.20;1.00;;;;;;5118735;28;20185;-79
2023/06/03 11:55:21;;;;;;;3.37;1.20;;;21.20;99.90;;;;;;5119208;28;20185;-80
2023/06/03 11:57:46;;;;;;;6.83;1.37;;;21.30;99.90;;;;;;5120039;28;20172;-79
2023/06/03 12:00:13;;;;;;;2.13;1.13;;;21.20;99.90;;;;;;5119074;28;20178;-79
2023/06/03 12:02:46;;;;;;;1.73;1.10;;;21.20;99.90;;;;;;5119290;28;20173;-80
2023/06/03 12:05:12;;;;;;;3.93;1.37;;;21.20;99.90;;;;;;5119857;28;20189;-79
2023/06/03 12:07:38;;;;;;;1.60;1.23;;;21.20;99.90;;;;;;5119759;28;20177;-79
2023/06/03 12:10:05;;;;;;;1.70;1.20;;;21.30;99.90;;;;;;5119995;28;20226;-80
2023/06/03 12:12:31;;;;;;;3.53;1.33;;;21.30;99.90;;;;;;5121586;28;20165;-80
2023/06/03 12:15:06;;;;;;;4.50;1.60;;;21.40;1.00;;;;;;5120677;28;20180;-80
2023/06/03 12:17:32;;;;;;;2.07;1.10;;;21.50;1.00;;;;;;5122653;28;20157;-80
2023/06/03 12:20:00;;;;;;;6.03;1.40;;;21.50;1.00;;;;;;5120494;28;20182;-80
2023/06/03 12:22:27;;;;;;;3.10;1.20;;;21.40;1.00;;;;;;5123009;28;20185;-80
2023/06/03 12:24:53;;;;;;;5.00;1.40;;;21.60;1.00;;;;;;5124077;28;20170;-80
2023/06/03 12:27:22;;;;;;;3.97;1.47;;;21.50;99.90;;;;;;5125289;28;20555;-80
2023/06/03 12:30:00;;;;;;;2.63;1.03;;;21.60;1.00;;;;;;5124498;28;20685;-80
2023/06/03 12:32:31;;;;;;;3.00;1.10;;;21.60;1.00;;;;;;5124213;28;20170;-80
2023/06/03 12:34:57;;;;;;;6.00;1.37;;;21.50;1.00;;;;;;5126963;28;20180;-80
2023/06/03 12:37:28;;;;;;;2.80;1.50;;;21.60;39.70;;;;;;5124731;28;20169;-80
2023/06/03 12:39:54;;;;;;;2.87;1.17;;;21.70;1.00;;;;;;5129789;28;20185;-80
2023/06/03 12:42:43;;;;;;;3.87;1.33;;;21.80;1.00;;;;;;5133507;28;20173;-80
2023/06/03 12:45:09;;;;;;;3.10;1.20;;;21.80;99.90;;;;;;5124276;28;20213;-79
2023/06/03 12:47:47;;;;;;;2.17;1.10;;;21.90;1.00;;;;;;5124123;28;20173;-80
2023/06/03 12:50:14;;;;;;;3.87;1.30;;;21.90;1.00;;;;;;5124483;28;20197;-80
2023/06/03 12:52:40;;;;;;;4.83;1.23;;;22.00;1.00;;;;;;5123505;28;20181;-80
2023/06/03 12:55:08;;;;;;;3.40;1.10;;;22.00;1.00;;;;;;5120107;28;20189;-79
2023/06/03 12:57:34;;;;;;;2.93;1.10;;;22.10;1.00;;;;;;5122735;28;20265;-79